EBFN

Koksijde Air Base Airport

Koksijde, Belgium
METAR EBFN 161755Z AUTO 20014KT 9999 BKN018/// OVC031/// 06/04 Q1003 WHT
Observed Flight Rules
Jan-16 @ 17:55 UTC (37 minutes ago) Marginal Visual Flight Rules
Wind Visibility Clouds
200° at 14 knots 10,000+ meters
  • Broken at 1,800' AGL
  • Overcast at 3,100' AGL
Temperatures Readings
Current 6°C / 43°F
Dewpoint 4°C / 39°F
Humidity 87%
Altimeter 29.62" Hg
Pressure 1002.92 hPa
Elevation 9
METAR EBFN 161755Z AUTO 20014KT 9999 BKN018/// OVC031/// 06/04 Q1003 WHT
Observed Flight Rules
Jan-16 @ 17:55 UTC
(37 minutes ago)
MVFR
Wind Visibility
200° at 14 knots 10,000+ meters
Clouds
  • Broken at 1,800' AGL
  • Overcast at 3,100' AGL
Temperature Dewpoint
6°C / 43°F 4°C / 39°F
Humidity Altimeter Pressure
87% 29.62" Hg 1002.92 hPa